createdAt,value
2022-10-27T00:01:41.766Z,84.30
2022-10-27T00:06:40.490Z,83.58
2022-10-27T00:11:39.239Z,84.33
2022-10-27T00:16:38.056Z,84.63
2022-10-27T00:21:36.710Z,84.39
2022-10-27T00:26:35.488Z,84.64
2022-10-27T00:31:34.185Z,84.60
2022-10-27T00:36:33.115Z,84.14
2022-10-27T00:41:40.256Z,83.65
2022-10-27T00:46:46.393Z,83.62
2022-10-27T00:51:58.972Z,83.24
2022-10-27T00:56:58.486Z,83.17
2022-10-27T01:06:57.744Z,82.69
2022-10-27T01:11:56.336Z,82.70
2022-10-27T01:17:13.151Z,82.82
2022-10-27T01:22:40.644Z,83.12
2022-10-27T01:27:51.456Z,82.46
2022-10-27T01:33:12.812Z,82.58
2022-10-27T01:38:20.593Z,83.42
2022-10-27T01:43:23.733Z,82.92
2022-10-27T01:48:23.277Z,83.80
2022-10-27T01:53:21.971Z,83.27
2022-10-27T01:58:45.681Z,83.79
2022-10-27T02:03:50.247Z,84.04
2022-10-27T02:09:00.120Z,84.41
2022-10-27T02:14:00.063Z,83.89
2022-10-27T02:19:10.925Z,84.80
2022-10-27T02:24:09.886Z,84.99
2022-10-27T02:29:59.789Z,84.80
2022-10-27T02:35:23.828Z,85.28
2022-10-27T02:40:22.699Z,85.29
2022-10-27T02:45:21.530Z,85.28
2022-10-27T02:50:20.194Z,85.23
2022-10-27T02:55:18.897Z,85.53
2022-10-27T03:00:17.834Z,85.42
2022-10-27T03:05:17.140Z,86.00
2022-10-27T03:10:15.918Z,84.96
2022-10-27T03:15:15.790Z,85.25
2022-10-27T03:20:16.301Z,85.77
2022-10-27T03:25:15.619Z,86.00
2022-10-27T03:30:17.032Z,85.79
2022-10-27T03:35:16.877Z,85.89
2022-10-27T03:40:15.589Z,86.19
2022-10-27T03:45:14.447Z,86.33
2022-10-27T03:50:13.068Z,86.07
2022-10-27T03:55:11.790Z,86.04
2022-10-27T04:00:11.204Z,86.43
2022-10-27T04:05:12.852Z,85.89
2022-10-27T04:10:11.520Z,85.68
2022-10-27T04:15:10.887Z,85.87
2022-10-27T04:20:09.984Z,86.49
2022-10-27T04:25:08.727Z,86.46
2022-10-27T04:30:07.876Z,86.69
2022-10-27T04:35:07.307Z,87.05
2022-10-27T04:40:06.683Z,92.51
2022-10-27T04:45:05.765Z,85.93
2022-10-27T04:50:04.843Z,79.02
2022-10-27T04:55:03.788Z,78.35
2022-10-27T05:00:02.709Z,77.36
2022-10-27T05:05:01.488Z,75.24
2022-10-27T05:10:00.198Z,76.54
2022-10-27T05:14:58.952Z,75.62
2022-10-27T05:19:57.633Z,79.91
2022-10-27T05:24:56.256Z,83.25
2022-10-27T05:29:54.919Z,84.37
2022-10-27T05:34:53.795Z,84.38
2022-10-27T05:39:52.533Z,85.63
2022-10-27T05:44:51.232Z,86.19
2022-10-27T05:49:49.986Z,86.68
2022-10-27T05:54:48.664Z,86.59
2022-10-27T05:59:47.398Z,86.94
2022-10-27T06:04:46.100Z,86.55
2022-10-27T06:09:44.754Z,86.95
2022-10-27T06:14:43.362Z,87.31
2022-10-27T06:19:42.073Z,86.84
2022-10-27T06:24:41.158Z,86.20
2022-10-27T06:29:39.821Z,86.01
2022-10-27T06:34:38.517Z,85.86
2022-10-27T06:39:38.182Z,85.39
2022-10-27T06:44:36.969Z,86.11
2022-10-27T06:49:35.815Z,86.31
2022-10-27T06:54:34.483Z,85.19
2022-10-27T06:59:33.219Z,84.78
2022-10-27T07:04:32.107Z,84.46
2022-10-27T07:09:30.751Z,84.17
2022-10-27T07:14:29.395Z,83.70
2022-10-27T07:19:28.061Z,83.36
2022-10-27T07:24:26.854Z,83.26
2022-10-27T07:29:25.510Z,83.11
2022-10-27T07:34:24.966Z,82.62
2022-10-27T07:39:23.699Z,82.04
2022-10-27T07:44:22.403Z,81.40
2022-10-27T07:49:21.110Z,81.14
2022-10-27T07:59:23.867Z,80.31
2022-10-27T08:04:22.698Z,79.96
2022-10-27T08:09:22.549Z,79.80
2022-10-27T08:14:21.278Z,80.18
2022-10-27T08:19:20.109Z,79.14
2022-10-27T08:24:18.868Z,79.05
2022-10-27T08:29:17.643Z,78.55
2022-10-27T08:39:16.143Z,78.22
2022-10-27T08:44:40.315Z,77.39
2022-10-27T08:49:42.339Z,77.09
2022-10-27T08:54:48.502Z,76.54
2022-10-27T08:59:47.252Z,76.66
2022-10-27T09:05:15.043Z,76.58
2022-10-27T09:10:24.935Z,75.85
2022-10-27T09:15:33.188Z,75.63
2022-10-27T09:20:38.399Z,75.23
2022-10-27T09:25:40.499Z,74.59
2022-10-27T09:30:41.361Z,73.78
2022-10-27T09:35:40.117Z,73.76
2022-10-27T09:40:39.057Z,73.47
2022-10-27T09:45:38.204Z,72.97
2022-10-27T09:50:45.621Z,72.31
2022-10-27T09:55:51.297Z,72.67
2022-10-27T10:00:57.868Z,72.61
2022-10-27T10:06:02.199Z,71.93
2022-10-27T10:11:02.163Z,71.51
2022-10-27T10:16:11.369Z,70.95
2022-10-27T10:21:12.804Z,70.72
2022-10-27T10:26:26.590Z,70.22
2022-10-27T10:31:28.661Z,69.34
2022-10-27T10:36:39.976Z,69.37
2022-10-27T10:41:39.241Z,69.17
2022-10-27T10:46:50.592Z,69.07
2022-10-27T10:51:55.807Z,68.31
2022-10-27T10:56:55.915Z,67.76
2022-10-27T11:02:04.929Z,67.92
2022-10-27T11:07:24.882Z,66.93
2022-10-27T11:12:30.111Z,66.46
2022-10-27T11:17:33.072Z,67.09
2022-10-27T11:22:34.977Z,66.61
2022-10-27T11:27:50.060Z,66.32
2022-10-27T11:33:15.381Z,64.37
2022-10-27T11:38:51.876Z,64.55
2022-10-27T11:44:13.538Z,63.96
2022-10-27T11:49:24.317Z,64.00
2022-10-27T11:54:23.385Z,64.04
2022-10-27T11:59:36.907Z,62.83
2022-10-27T12:04:48.318Z,62.26
2022-10-27T12:10:05.505Z,62.56
2022-10-27T12:15:29.268Z,61.78
2022-10-27T12:20:39.246Z,60.47
2022-10-27T12:25:46.471Z,59.84
2022-10-27T12:30:48.009Z,58.64
2022-10-27T12:36:14.799Z,59.46
2022-10-27T12:41:22.611Z,59.98
2022-10-27T12:46:37.373Z,59.30
2022-10-27T12:52:13.252Z,60.14
2022-10-27T12:57:25.779Z,58.20
2022-10-27T13:02:31.242Z,58.32
2022-10-27T13:07:36.044Z,58.91
2022-10-27T13:12:58.473Z,58.72
2022-10-27T13:18:15.932Z,57.35
2022-10-27T13:23:20.232Z,57.10
2022-10-27T13:28:27.842Z,56.89
2022-10-27T13:33:38.426Z,56.85
2022-10-27T13:38:37.272Z,58.56
2022-10-27T13:43:36.036Z,58.34
2022-10-27T13:48:35.114Z,58.32
2022-10-27T13:53:34.279Z,58.20
2022-10-27T13:58:42.281Z,58.17
2022-10-27T14:03:43.472Z,57.86
2022-10-27T14:08:50.350Z,56.89
2022-10-27T14:13:53.101Z,56.94
2022-10-27T14:19:05.366Z,57.21
2022-10-27T14:24:26.884Z,56.04
2022-10-27T14:29:26.254Z,57.16
2022-10-27T14:34:26.623Z,57.02
2022-10-27T14:39:27.554Z,57.50
2022-10-27T14:44:30.416Z,57.48
2022-10-27T14:49:34.624Z,58.38
2022-10-27T14:54:34.919Z,57.81
2022-10-27T14:59:33.610Z,58.11
2022-10-27T15:04:33.431Z,58.27
2022-10-27T15:09:38.073Z,59.58
2022-10-27T15:14:38.242Z,60.34
2022-10-27T15:19:37.197Z,61.25
2022-10-27T15:24:36.595Z,62.19
2022-10-27T15:29:36.258Z,62.46
2022-10-27T15:34:38.554Z,62.45
2022-10-27T15:39:37.644Z,62.47
2022-10-27T15:44:37.369Z,62.17
2022-10-27T15:49:37.291Z,63.02
2022-10-27T15:54:56.993Z,63.08
2022-10-27T16:00:14.024Z,62.79
2022-10-27T16:05:34.638Z,63.05
2022-10-27T16:10:33.458Z,63.58
2022-10-27T16:15:32.848Z,64.65
2022-10-27T16:20:34.303Z,65.46
2022-10-27T16:25:33.730Z,65.77
2022-10-27T16:30:32.533Z,66.51
2022-10-27T16:35:31.651Z,66.10
2022-10-27T16:40:30.410Z,67.33
2022-10-27T16:45:29.168Z,68.76
2022-10-27T16:50:28.061Z,69.39
2022-10-27T16:55:27.310Z,69.89
2022-10-27T17:00:26.261Z,70.29
2022-10-27T17:05:25.389Z,70.83
2022-10-27T17:15:28.167Z,72.70
2022-10-27T17:20:26.854Z,73.14
2022-10-27T17:25:27.992Z,73.23
2022-10-27T17:30:29.511Z,73.79
2022-10-27T17:35:28.328Z,74.14
2022-10-27T17:40:26.962Z,74.46
2022-10-27T17:45:25.691Z,75.74
2022-10-27T17:50:24.552Z,75.97
2022-10-27T17:55:23.343Z,76.74
2022-10-27T18:00:22.098Z,76.61
2022-10-27T18:05:20.775Z,76.97
2022-10-27T18:10:19.602Z,77.64
2022-10-27T18:15:35.082Z,77.82
2022-10-27T18:20:35.590Z,77.88
2022-10-27T18:25:34.250Z,78.48
2022-10-27T18:30:33.248Z,78.98
2022-10-27T18:35:32.980Z,78.75
2022-10-27T18:40:31.719Z,79.25
2022-10-27T18:45:30.476Z,79.61
2022-10-27T18:50:29.228Z,79.66
2022-10-27T18:55:27.880Z,79.89
2022-10-27T19:00:26.690Z,80.44
2022-10-27T19:05:25.524Z,80.81
2022-10-27T19:10:24.276Z,80.65
2022-10-27T19:15:23.209Z,80.97
2022-10-27T19:20:22.449Z,81.07
2022-10-27T19:25:21.152Z,81.72
2022-10-27T19:30:23.491Z,81.75
2022-10-27T19:35:22.282Z,82.25
2022-10-27T19:40:20.983Z,82.10
2022-10-27T19:45:19.830Z,81.97
2022-10-27T19:50:18.591Z,82.72
2022-10-27T19:55:17.310Z,82.43
2022-10-27T20:00:16.583Z,82.60
2022-10-27T20:05:15.458Z,83.33
2022-10-27T20:10:14.210Z,83.58
2022-10-27T20:15:14.157Z,83.88
2022-10-27T20:20:12.856Z,83.48
2022-10-27T20:25:11.538Z,83.69
2022-10-27T20:30:10.682Z,83.90
2022-10-27T20:35:09.392Z,84.00
2022-10-27T20:40:08.843Z,84.21
2022-10-27T20:45:08.005Z,84.04
2022-10-27T20:50:07.198Z,82.46
2022-10-27T20:55:06.395Z,80.89
2022-10-27T21:00:05.650Z,80.57
2022-10-27T21:05:04.663Z,79.74
2022-10-27T21:10:03.514Z,79.45
2022-10-27T21:15:02.339Z,80.10
2022-10-27T21:20:01.030Z,79.73
2022-10-27T21:24:59.802Z,79.60
2022-10-27T21:29:58.467Z,81.10
2022-10-27T21:34:57.233Z,82.51
2022-10-27T21:39:55.918Z,83.06
2022-10-27T21:44:55.865Z,84.09
2022-10-27T21:49:54.503Z,84.84
2022-10-27T21:54:53.251Z,84.36
2022-10-27T21:59:52.148Z,85.29
2022-10-27T22:04:51.991Z,85.27
2022-10-27T22:09:50.826Z,84.52
2022-10-27T22:14:49.536Z,85.00
2022-10-27T22:19:48.303Z,84.81
2022-10-27T22:24:47.043Z,85.06
2022-10-27T22:29:45.929Z,84.82
2022-10-27T22:34:44.591Z,84.94
2022-10-27T22:39:43.281Z,85.17
2022-10-27T22:44:41.963Z,85.30
2022-10-27T22:49:40.774Z,85.47
2022-10-27T22:54:39.505Z,85.74
2022-10-27T22:59:38.248Z,86.14
2022-10-27T23:04:36.961Z,85.29
2022-10-27T23:09:35.772Z,85.04
2022-10-27T23:14:34.524Z,85.59
2022-10-27T23:19:33.309Z,85.63
2022-10-27T23:24:31.960Z,86.11
2022-10-27T23:29:30.949Z,86.13
2022-10-27T23:34:29.807Z,85.50
2022-10-27T23:39:28.542Z,85.80
2022-10-27T23:44:27.174Z,86.00
2022-10-27T23:49:25.911Z,86.11
2022-10-27T23:54:24.538Z,85.90
2022-10-27T23:59:23.351Z,85.95
